createdAt,value
2023-05-09T00:00:54.622Z,257.10
2023-05-09T00:01:54.675Z,253.70
2023-05-09T00:02:54.655Z,70.30
2023-05-09T00:03:54.577Z,143.80
2023-05-09T00:04:54.590Z,276.90
2023-05-09T00:05:54.554Z,307.80
2023-05-09T00:06:54.588Z,330.60
2023-05-09T00:07:54.523Z,72.10
2023-05-09T00:08:54.508Z,89.20
2023-05-09T00:09:54.513Z,129.50
2023-05-09T00:10:54.559Z,310.70
2023-05-09T00:11:54.489Z,281.00
2023-05-09T00:12:54.506Z,291.80
2023-05-09T00:13:54.459Z,139.20
2023-05-09T00:14:54.458Z,112.40
2023-05-09T00:15:54.495Z,148.00
2023-05-09T00:16:54.510Z,311.80
2023-05-09T00:17:54.466Z,282.70
2023-05-09T00:18:54.422Z,303.40
2023-05-09T00:19:54.388Z,300.30
2023-05-09T00:20:54.435Z,270.80
2023-05-09T00:21:54.367Z,137.30
2023-05-09T00:22:54.373Z,145.60
2023-05-09T00:23:54.355Z,482.40
2023-05-09T00:24:54.420Z,463.50
2023-05-09T00:25:54.371Z,336.50
2023-05-09T00:26:54.313Z,433.90
2023-05-09T00:27:54.297Z,423.40
2023-05-09T00:28:54.332Z,453.00
2023-05-09T00:29:54.325Z,339.00
2023-05-09T00:30:54.284Z,367.40
2023-05-09T00:31:54.304Z,334.80
2023-05-09T00:32:54.280Z,320.60
2023-05-09T00:33:54.235Z,329.20
2023-05-09T00:34:54.282Z,271.00
2023-05-09T00:35:54.212Z,279.80
2023-05-09T00:36:54.215Z,308.10
2023-05-09T00:37:54.184Z,274.50
2023-05-09T00:38:54.266Z,293.10
2023-05-09T00:39:54.233Z,279.90
2023-05-09T00:40:54.168Z,264.80
2023-05-09T00:41:54.151Z,274.80
2023-05-09T00:42:54.146Z,271.90
2023-05-09T00:43:54.182Z,272.70
2023-05-09T00:44:54.148Z,278.70
2023-05-09T00:45:54.075Z,284.90
2023-05-09T00:46:54.047Z,264.40
2023-05-09T00:47:54.085Z,288.60
2023-05-09T00:48:54.060Z,245.40
2023-05-09T00:49:54.007Z,271.60
2023-05-09T00:50:54.030Z,91.10
2023-05-09T00:51:53.968Z,119.30
2023-05-09T00:52:53.977Z,91.50
2023-05-09T00:53:53.995Z,137.10
2023-05-09T00:54:53.959Z,137.60
2023-05-09T00:55:53.946Z,143.80
2023-05-09T00:56:53.923Z,135.40
2023-05-09T00:57:53.962Z,111.00
2023-05-09T00:58:53.932Z,153.10
2023-05-09T00:59:53.903Z,111.10
2023-05-09T01:00:53.874Z,150.10
2023-05-09T01:01:53.905Z,106.10
2023-05-09T01:02:54.047Z,144.70
2023-05-09T01:03:53.868Z,156.80
2023-05-09T01:04:53.836Z,273.20
2023-05-09T01:05:53.819Z,282.00
2023-05-09T01:06:53.814Z,137.80
2023-05-09T01:07:53.844Z,195.40
2023-05-09T01:08:53.782Z,106.60
2023-05-09T01:09:53.771Z,176.50
2023-05-09T01:10:53.783Z,132.60
2023-05-09T01:11:53.774Z,333.00
2023-05-09T01:12:53.804Z,379.10
2023-05-09T01:13:53.730Z,351.20
2023-05-09T01:14:53.726Z,377.60
2023-05-09T01:15:53.767Z,369.40
2023-05-09T01:16:53.719Z,365.80
2023-05-09T01:17:53.744Z,158.10
2023-05-09T01:18:53.679Z,362.70
2023-05-09T01:19:53.665Z,358.60
2023-05-09T01:20:53.643Z,371.50
2023-05-09T01:21:53.680Z,380.00
2023-05-09T01:22:53.629Z,364.60
2023-05-09T01:23:53.601Z,370.40
2023-05-09T01:24:53.600Z,67.20
2023-05-09T01:25:53.630Z,80.40
2023-05-09T01:26:53.617Z,77.50
2023-05-09T01:27:53.592Z,362.90
2023-05-09T01:28:53.574Z,397.70
2023-05-09T01:29:53.535Z,388.80
2023-05-09T01:30:53.580Z,470.50
2023-05-09T01:31:53.530Z,400.80
2023-05-09T01:32:53.549Z,380.70
2023-05-09T01:33:53.493Z,371.50
2023-05-09T01:34:53.521Z,154.00
2023-05-09T01:35:53.516Z,242.70
2023-05-09T01:36:53.462Z,387.60
2023-05-09T01:37:53.471Z,389.40
2023-05-09T01:38:53.447Z,354.50
2023-05-09T01:39:53.474Z,64.30
2023-05-09T01:40:53.433Z,78.50
2023-05-09T01:41:53.429Z,155.60
2023-05-09T01:42:53.395Z,175.60
2023-05-09T01:43:53.419Z,368.30
2023-05-09T01:44:53.419Z,408.80
2023-05-09T01:45:53.356Z,387.10
2023-05-09T01:46:53.464Z,261.80
2023-05-09T01:47:53.374Z,239.70
2023-05-09T01:48:53.322Z,242.00
2023-05-09T01:49:53.355Z,237.60
2023-05-09T01:50:53.320Z,206.90
2023-05-09T01:51:53.318Z,202.60
2023-05-09T01:52:53.322Z,61.70
2023-05-09T01:53:53.322Z,59.60
2023-05-09T01:54:53.318Z,133.90
2023-05-09T01:55:53.250Z,368.70
2023-05-09T01:56:53.259Z,296.40
2023-05-09T01:57:53.241Z,323.60
2023-05-09T01:58:53.268Z,330.20
2023-05-09T01:59:53.210Z,379.20
2023-05-09T02:00:53.226Z,298.60
2023-05-09T02:01:53.201Z,258.30
2023-05-09T02:02:53.425Z,261.00
2023-05-09T02:03:53.200Z,287.40
2023-05-09T02:04:53.148Z,305.10
2023-05-09T02:05:53.179Z,62.90
2023-05-09T02:06:53.129Z,70.40
2023-05-09T02:07:53.149Z,81.10
2023-05-09T02:08:53.160Z,368.80
2023-05-09T02:09:53.105Z,531.60
2023-05-09T02:10:53.085Z,545.20
2023-05-09T02:11:53.079Z,524.40
2023-05-09T02:12:53.154Z,523.70
2023-05-09T02:13:53.047Z,385.50
2023-05-09T02:14:53.028Z,396.80
2023-05-09T02:15:53.044Z,402.40
2023-05-09T02:16:53.036Z,399.20
2023-05-09T02:17:53.089Z,390.80
2023-05-09T02:18:53.014Z,373.90
2023-05-09T02:19:52.984Z,381.60
2023-05-09T02:20:53.000Z,391.70
2023-05-09T02:21:52.964Z,390.30
2023-05-09T02:22:52.983Z,412.00
2023-05-09T02:23:52.943Z,440.00
2023-05-09T02:24:52.960Z,457.40
2023-05-09T02:25:52.898Z,458.10
2023-05-09T02:26:52.934Z,451.40
2023-05-09T02:27:52.930Z,448.10
2023-05-09T02:28:52.885Z,423.80
2023-05-09T02:29:52.871Z,443.10
2023-05-09T02:30:52.861Z,394.50
2023-05-09T02:31:52.916Z,426.40
2023-05-09T02:32:52.875Z,410.30
2023-05-09T02:33:52.822Z,325.40
2023-05-09T02:34:52.819Z,103.60
2023-05-09T02:35:52.840Z,113.70
2023-05-09T02:36:52.839Z,120.10
2023-05-09T02:37:52.770Z,135.80
2023-05-09T02:38:52.770Z,498.70
2023-05-09T02:39:52.769Z,464.10
2023-05-09T02:40:52.818Z,438.60
2023-05-09T02:41:52.744Z,450.30
2023-05-09T02:42:52.727Z,438.80
2023-05-09T02:43:52.711Z,441.20
2023-05-09T02:44:52.710Z,437.80
2023-05-09T02:45:52.817Z,361.80
2023-05-09T02:46:52.671Z,172.90
2023-05-09T02:47:52.717Z,147.40
2023-05-09T02:48:52.660Z,272.70
2023-05-09T02:49:52.676Z,639.20
2023-05-09T02:50:52.709Z,658.60
2023-05-09T02:51:52.625Z,599.70
2023-05-09T02:52:52.617Z,541.30
2023-05-09T02:53:52.607Z,451.80
2023-05-09T02:54:52.637Z,444.70
2023-05-09T02:55:52.565Z,443.60
2023-05-09T02:56:52.559Z,448.80
2023-05-09T02:58:01.898Z,440.90
2023-05-09T02:58:53.540Z,448.50
2023-05-09T02:59:52.566Z,448.50
2023-05-09T03:00:52.521Z,448.20
2023-05-09T03:01:52.581Z,475.30
2023-05-09T03:02:52.550Z,465.50
2023-05-09T03:03:52.540Z,452.30
2023-05-09T03:04:52.506Z,201.10
2023-05-09T03:05:52.464Z,329.20
2023-05-09T03:06:52.469Z,634.60
2023-05-09T03:07:52.433Z,612.00
2023-05-09T03:08:52.465Z,588.30
2023-05-09T03:09:52.462Z,568.50
2023-05-09T03:10:52.395Z,577.00
2023-05-09T03:11:52.425Z,612.30
2023-05-09T03:12:52.430Z,616.00
2023-05-09T03:13:52.410Z,609.60
2023-05-09T03:14:52.362Z,617.90
2023-05-09T03:15:52.400Z,593.40
2023-05-09T03:16:52.338Z,607.50
2023-05-09T03:17:52.372Z,558.50
2023-05-09T03:18:52.358Z,505.70
2023-05-09T03:19:52.325Z,448.00
2023-05-09T03:20:52.295Z,455.80
2023-05-09T03:21:52.284Z,461.90
2023-05-09T03:22:52.286Z,458.80
2023-05-09T03:23:52.292Z,459.90
2023-05-09T03:24:52.246Z,458.30
2023-05-09T03:25:52.248Z,464.00
2023-05-09T03:26:52.205Z,476.80
2023-05-09T03:27:52.370Z,463.80
2023-05-09T03:28:52.181Z,466.20
2023-05-09T03:29:52.191Z,457.60
2023-05-09T03:30:52.174Z,476.90
2023-05-09T03:31:52.194Z,440.70
2023-05-09T03:32:52.256Z,165.80
2023-05-09T03:33:52.167Z,219.70
2023-05-09T03:34:52.116Z,582.60
2023-05-09T03:35:52.132Z,589.50
2023-05-09T03:36:52.138Z,581.60
2023-05-09T03:37:52.146Z,554.60
2023-05-09T03:38:52.093Z,574.20
2023-05-09T03:39:52.088Z,570.60
2023-05-09T03:40:52.061Z,559.50
2023-05-09T03:41:52.092Z,553.50
2023-05-09T03:42:52.044Z,529.10
2023-05-09T03:43:52.031Z,444.50
2023-05-09T03:44:52.011Z,410.40
2023-05-09T03:45:52.011Z,429.70
2023-05-09T03:46:52.058Z,409.60
2023-05-09T03:47:52.000Z,105.20
2023-05-09T03:48:51.950Z,172.20
2023-05-09T03:49:51.952Z,187.90
2023-05-09T03:50:51.988Z,223.70
2023-05-09T03:51:51.960Z,564.40
2023-05-09T03:52:51.920Z,391.40
2023-05-09T03:53:51.925Z,498.90
2023-05-09T03:54:51.905Z,497.70
2023-05-09T03:55:51.931Z,472.10
2023-05-09T03:56:51.878Z,470.40
2023-05-09T03:57:51.876Z,160.40
2023-05-09T03:58:51.882Z,170.00
2023-05-09T03:59:51.841Z,193.00
2023-05-09T04:00:51.874Z,240.00
2023-05-09T04:01:51.859Z,280.50
2023-05-09T04:02:51.845Z,505.10
2023-05-09T04:03:51.862Z,630.80
2023-05-09T04:04:51.793Z,658.50
2023-05-09T04:05:51.811Z,668.30
2023-05-09T04:06:51.793Z,560.90
2023-05-09T04:07:51.750Z,520.60
2023-05-09T04:08:51.778Z,502.50
2023-05-09T04:09:51.769Z,506.20
2023-05-09T04:10:51.762Z,496.70
2023-05-09T04:11:51.723Z,476.70
2023-05-09T04:12:51.748Z,484.30
2023-05-09T04:13:51.700Z,443.40
2023-05-09T04:14:51.727Z,275.60
2023-05-09T04:15:51.682Z,186.80
2023-05-09T04:16:51.744Z,207.80
2023-05-09T04:17:51.682Z,213.20
2023-05-09T04:18:51.629Z,252.90
2023-05-09T04:19:51.687Z,295.60
2023-05-09T04:20:51.617Z,281.30
2023-05-09T04:21:51.617Z,317.60
2023-05-09T04:22:51.578Z,499.50
2023-05-09T04:23:51.632Z,570.00
2023-05-09T04:24:51.607Z,552.80
2023-05-09T04:25:51.680Z,543.10
2023-05-09T04:26:51.548Z,551.90
2023-05-09T04:27:51.527Z,473.60
2023-05-09T04:28:51.562Z,239.80
2023-05-09T04:29:51.501Z,135.60
2023-05-09T04:30:51.610Z,155.60
2023-05-09T04:31:51.618Z,142.00
2023-05-09T04:32:51.494Z,138.90
2023-05-09T04:33:51.505Z,148.70
2023-05-09T04:34:51.469Z,132.70
2023-05-09T04:35:51.451Z,121.80
2023-05-09T04:36:51.433Z,143.90
2023-05-09T04:37:51.432Z,146.70
2023-05-09T04:38:51.437Z,125.00
2023-05-09T04:39:51.405Z,112.60
2023-05-09T04:40:51.379Z,91.40
2023-05-09T04:41:51.390Z,138.70
2023-05-09T04:42:51.405Z,163.90
2023-05-09T04:43:51.387Z,183.20
2023-05-09T04:44:51.338Z,127.20
2023-05-09T04:45:51.377Z,173.80
2023-05-09T04:46:51.345Z,155.90
2023-05-09T04:47:51.414Z,296.70
2023-05-09T04:48:51.272Z,150.60
2023-05-09T04:49:51.301Z,281.80
2023-05-09T04:50:51.287Z,132.90
2023-05-09T04:51:51.274Z,476.30
2023-05-09T04:52:51.294Z,306.30
2023-05-09T04:53:51.377Z,182.70
2023-05-09T04:54:51.220Z,488.20
2023-05-09T04:55:51.207Z,430.20
2023-05-09T04:56:51.265Z,414.60
2023-05-09T04:57:51.231Z,281.40
2023-05-09T04:58:51.180Z,120.40
2023-05-09T04:59:51.173Z,407.00
2023-05-09T05:00:51.155Z,378.20
2023-05-09T05:01:51.248Z,355.20
2023-05-09T05:02:51.190Z,344.90
2023-05-09T05:03:51.137Z,329.40
2023-05-09T05:04:51.360Z,318.00
2023-05-09T05:05:51.218Z,349.90
2023-05-09T05:06:51.133Z,306.20
2023-05-09T05:07:51.091Z,331.00
2023-05-09T05:08:51.087Z,340.90
2023-05-09T05:09:51.074Z,377.10
2023-05-09T05:10:51.085Z,371.70
2023-05-09T05:12:00.790Z,368.60
2023-05-09T05:12:52.030Z,412.00
2023-05-09T05:13:51.045Z,374.90
2023-05-09T05:14:51.014Z,397.90
2023-05-09T05:15:51.051Z,305.80
2023-05-09T05:16:51.003Z,371.80
2023-05-09T05:17:51.058Z,456.00
2023-05-09T05:18:50.970Z,464.50
2023-05-09T05:19:51.015Z,454.90
2023-05-09T05:20:50.971Z,377.40
2023-05-09T05:21:50.935Z,487.30
2023-05-09T05:22:50.962Z,516.90
2023-05-09T05:23:50.929Z,451.80
2023-05-09T05:24:50.957Z,376.70
2023-05-09T05:25:50.907Z,338.10
2023-05-09T05:26:50.863Z,367.20
2023-05-09T05:27:50.893Z,385.70
2023-05-09T05:28:50.827Z,355.10
2023-05-09T05:29:50.865Z,303.20
2023-05-09T05:30:50.824Z,423.10
2023-05-09T05:31:50.929Z,406.60
2023-05-09T05:32:50.916Z,387.40
2023-05-09T05:33:50.804Z,358.70
2023-05-09T05:34:50.820Z,443.90
2023-05-09T05:35:50.773Z,413.60
2023-05-09T05:36:50.782Z,440.30
2023-05-09T05:37:50.767Z,264.00
2023-05-09T05:38:50.862Z,359.70
2023-05-09T05:39:50.978Z,366.30
2023-05-09T05:40:50.738Z,439.00
2023-05-09T05:41:50.720Z,375.20
2023-05-09T05:42:50.709Z,426.80
2023-05-09T05:43:52.822Z,457.40
2023-05-09T05:44:50.677Z,391.00
2023-05-09T05:45:50.696Z,390.60
2023-05-09T05:46:50.629Z,333.80
2023-05-09T05:47:50.660Z,363.80
2023-05-09T05:48:50.648Z,346.90
2023-05-09T05:49:50.615Z,312.60
2023-05-09T05:50:50.602Z,302.50
2023-05-09T05:51:50.596Z,270.80
2023-05-09T05:52:50.625Z,312.00
2023-05-09T05:53:50.606Z,283.70
2023-05-09T05:54:50.546Z,300.10
2023-05-09T05:55:50.612Z,297.80
2023-05-09T05:56:50.507Z,281.20
2023-05-09T05:57:50.560Z,286.30
2023-05-09T05:58:50.492Z,271.80
2023-05-09T05:59:50.504Z,287.70
2023-05-09T06:00:50.483Z,292.30
2023-05-09T06:01:50.525Z,226.60
2023-05-09T06:02:50.529Z,99.90
2023-05-09T06:03:50.550Z,62.80
2023-05-09T06:04:50.452Z,82.00
2023-05-09T06:05:50.427Z,47.40
2023-05-09T06:06:50.434Z,46.90
2023-05-09T06:07:50.426Z,51.50
2023-05-09T06:08:50.392Z,47.70
2023-05-09T06:09:50.373Z,43.70
2023-05-09T06:10:50.394Z,46.20
2023-05-09T06:11:50.388Z,51.40
2023-05-09T06:12:50.405Z,58.70
2023-05-09T06:13:50.339Z,56.60
2023-05-09T06:14:50.312Z,54.20
2023-05-09T06:15:50.324Z,56.40
2023-05-09T06:16:50.415Z,53.10
2023-05-09T06:17:50.380Z,47.60
2023-05-09T06:18:50.301Z,38.90
2023-05-09T06:19:50.273Z,34.80
2023-05-09T06:20:50.300Z,33.50
2023-05-09T06:21:50.300Z,37.80
2023-05-09T06:22:50.222Z,41.50
2023-05-09T06:24:04.331Z,37.80
2023-05-09T06:24:51.226Z,39.10
2023-05-09T06:25:50.218Z,43.60
2023-05-09T06:26:50.166Z,42.90
2023-05-09T06:27:50.194Z,41.40
2023-05-09T06:28:50.175Z,48.70
2023-05-09T06:29:50.194Z,36.20
2023-05-09T06:30:50.196Z,41.70
2023-05-09T06:31:50.159Z,35.80
2023-05-09T06:32:50.134Z,32.20
2023-05-09T06:33:50.139Z,29.00
2023-05-09T06:34:50.160Z,51.50
2023-05-09T06:35:50.124Z,29.00
2023-05-09T06:36:50.082Z,23.60
2023-05-09T06:37:50.097Z,30.70
2023-05-09T06:38:50.078Z,23.30
2023-05-09T06:39:50.097Z,28.10
2023-05-09T06:40:50.067Z,29.40
2023-05-09T06:41:50.024Z,29.60
2023-05-09T06:42:50.041Z,30.80
2023-05-09T06:43:50.130Z,31.40
2023-05-09T06:44:50.055Z,98.10
2023-05-09T06:45:50.033Z,155.40
2023-05-09T06:46:49.960Z,38.50
2023-05-09T06:47:49.963Z,148.30
2023-05-09T06:48:50.021Z,102.00
2023-05-09T06:49:49.983Z,36.10
2023-05-09T06:50:49.924Z,33.00
2023-05-09T06:51:49.902Z,28.20
2023-05-09T06:52:49.901Z,32.50
2023-05-09T06:53:49.909Z,38.20
2023-05-09T06:54:49.865Z,34.40
2023-05-09T06:55:49.847Z,37.00
2023-05-09T06:56:49.860Z,38.70
2023-05-09T06:57:49.850Z,46.00
2023-05-09T06:58:49.884Z,42.60
2023-05-09T06:59:49.819Z,64.10
2023-05-09T07:00:49.795Z,66.50
2023-05-09T07:01:49.924Z,40.70
2023-05-09T07:02:49.857Z,39.10
2023-05-09T07:03:49.829Z,44.50
2023-05-09T07:04:49.780Z,37.90
2023-05-09T07:05:49.750Z,42.40
2023-05-09T07:06:49.753Z,37.40
2023-05-09T07:07:49.774Z,39.30
2023-05-09T07:08:49.763Z,38.70
2023-05-09T07:09:52.991Z,41.50
2023-05-09T07:10:50.698Z,34.20
2023-05-09T07:11:49.693Z,39.20
2023-05-09T07:12:49.724Z,72.20
2023-05-09T07:13:49.680Z,57.10
2023-05-09T07:14:49.680Z,51.90
2023-05-09T07:15:49.679Z,54.70
2023-05-09T07:16:49.747Z,68.10
2023-05-09T07:17:49.684Z,55.90
2023-05-09T07:18:49.628Z,66.30
2023-05-09T07:19:49.581Z,62.10
2023-05-09T07:20:49.622Z,60.00
2023-05-09T07:21:49.558Z,67.20
2023-05-09T07:22:49.626Z,69.60
2023-05-09T07:23:49.538Z,57.60
2023-05-09T07:24:49.540Z,64.90
2023-05-09T07:25:49.533Z,58.80
2023-05-09T07:26:49.508Z,48.60
2023-05-09T07:27:49.528Z,55.40
2023-05-09T07:28:49.496Z,61.20
2023-05-09T07:29:49.474Z,76.70
2023-05-09T07:30:49.479Z,74.30
2023-05-09T07:31:49.534Z,76.50
2023-05-09T07:32:49.580Z,91.70
2023-05-09T07:33:49.442Z,97.30
2023-05-09T07:34:49.425Z,73.00
2023-05-09T07:35:49.418Z,41.40
2023-05-09T07:36:49.565Z,38.00
2023-05-09T07:37:49.424Z,29.90
2023-05-09T07:38:49.425Z,28.60
2023-05-09T07:39:49.348Z,33.10
2023-05-09T07:40:49.384Z,29.70
2023-05-09T07:41:49.400Z,33.70
2023-05-09T07:42:49.326Z,39.00
2023-05-09T07:43:49.313Z,38.10
2023-05-09T07:44:49.324Z,27.90
2023-05-09T07:45:49.357Z,36.50
2023-05-09T07:46:49.356Z,29.10
2023-05-09T07:47:49.291Z,28.70
2023-05-09T07:48:49.303Z,30.30
2023-05-09T07:49:49.235Z,68.00
2023-05-09T07:50:49.285Z,46.30
2023-05-09T07:51:49.262Z,27.60
2023-05-09T07:52:49.216Z,35.10
2023-05-09T07:53:49.198Z,48.90
2023-05-09T07:54:49.217Z,108.40
2023-05-09T07:55:49.244Z,89.10
2023-05-09T07:56:49.183Z,79.80
2023-05-09T07:57:49.163Z,83.00
2023-05-09T07:58:49.168Z,105.00
2023-05-09T07:59:49.173Z,79.20
2023-05-09T08:00:49.169Z,172.30
2023-05-09T08:01:49.103Z,169.00
2023-05-09T08:02:49.191Z,203.10
2023-05-09T08:03:49.118Z,109.50
2023-05-09T08:04:49.283Z,195.40
2023-05-09T08:05:49.114Z,106.80
2023-05-09T08:06:49.076Z,148.30
2023-05-09T08:07:49.048Z,105.70
2023-05-09T08:08:49.047Z,68.70
2023-05-09T08:09:49.093Z,92.60
2023-05-09T08:10:49.030Z,97.20
2023-05-09T08:11:49.003Z,66.90
2023-05-09T08:12:49.110Z,116.90
2023-05-09T08:13:48.991Z,70.20
2023-05-09T08:14:49.018Z,83.50
2023-05-09T08:15:49.006Z,108.70
2023-05-09T08:16:48.958Z,132.20
2023-05-09T08:17:49.014Z,133.00
2023-05-09T08:18:48.960Z,138.70
2023-05-09T08:19:48.966Z,144.70
2023-05-09T08:20:48.906Z,124.40
2023-05-09T08:21:48.884Z,147.50
2023-05-09T08:22:48.868Z,170.20
2023-05-09T08:23:48.950Z,128.20
2023-05-09T08:24:48.899Z,125.90
2023-05-09T08:25:48.853Z,109.80
2023-05-09T08:26:48.859Z,105.80
2023-05-09T08:27:49.768Z,105.50
2023-05-09T08:28:48.879Z,88.00
2023-05-09T08:29:48.842Z,98.10
2023-05-09T08:30:48.788Z,95.30
2023-05-09T08:31:48.927Z,99.30
2023-05-09T08:32:48.814Z,93.10
2023-05-09T08:33:48.818Z,97.00
2023-05-09T08:34:48.785Z,105.30
2023-05-09T08:35:48.737Z,103.60
2023-05-09T08:36:48.734Z,117.10
2023-05-09T08:37:48.750Z,98.50
2023-05-09T08:38:48.742Z,99.20
2023-05-09T08:39:48.687Z,121.10
2023-05-09T08:40:48.661Z,120.50
2023-05-09T08:41:48.663Z,124.80
2023-05-09T08:42:48.702Z,143.70
2023-05-09T08:43:48.648Z,83.50
2023-05-09T08:44:48.641Z,95.90
2023-05-09T08:45:48.636Z,119.40
2023-05-09T08:46:48.731Z,103.30
2023-05-09T08:47:48.635Z,92.30
2023-05-09T08:48:48.577Z,109.00
2023-05-09T08:49:48.562Z,113.60
2023-05-09T08:50:48.580Z,95.90
2023-05-09T08:51:48.614Z,109.50
2023-05-09T08:52:48.570Z,129.90
2023-05-09T08:53:48.549Z,150.70
2023-05-09T08:54:48.547Z,108.80
2023-05-09T08:55:48.540Z,107.00
2023-05-09T08:56:48.557Z,114.80
2023-05-09T08:57:48.484Z,119.70
2023-05-09T08:58:48.475Z,123.20
2023-05-09T08:59:48.458Z,119.50
2023-05-09T09:00:48.520Z,116.50
2023-05-09T09:01:48.598Z,128.90
2023-05-09T09:02:48.468Z,159.80
2023-05-09T09:03:48.417Z,90.30
2023-05-09T09:04:48.508Z,80.50
2023-05-09T09:05:48.545Z,100.50
2023-05-09T09:06:48.468Z,126.60
2023-05-09T09:07:48.387Z,108.50
2023-05-09T09:08:48.382Z,66.40
2023-05-09T09:09:48.401Z,115.10
2023-05-09T09:10:48.468Z,66.10
2023-05-09T09:11:48.364Z,62.30
2023-05-09T09:12:50.073Z,76.40
2023-05-09T09:13:48.315Z,75.60
2023-05-09T09:14:48.333Z,70.30
2023-05-09T09:15:48.353Z,88.50
2023-05-09T09:16:48.389Z,64.80
2023-05-09T09:17:48.285Z,71.80
2023-05-09T09:18:48.260Z,56.60
2023-05-09T09:19:48.270Z,91.60
2023-05-09T09:20:48.289Z,75.40
2023-05-09T09:21:48.270Z,64.20
2023-05-09T09:22:48.234Z,78.80
2023-05-09T09:23:48.261Z,111.30
2023-05-09T09:24:48.254Z,86.40
2023-05-09T09:25:48.299Z,81.20
2023-05-09T09:26:48.229Z,80.20
2023-05-09T09:27:48.173Z,90.10
2023-05-09T09:28:48.181Z,95.20
2023-05-09T09:29:48.193Z,82.40
2023-05-09T09:30:48.152Z,72.70
2023-05-09T09:31:48.250Z,57.00
2023-05-09T09:32:48.161Z,50.50
2023-05-09T09:33:48.133Z,44.60
2023-05-09T09:34:48.136Z,47.00
2023-05-09T09:35:48.093Z,53.00
2023-05-09T09:36:48.096Z,41.40
2023-05-09T09:37:48.052Z,45.10
2023-05-09T09:38:48.111Z,48.10
2023-05-09T09:39:48.048Z,53.50
2023-05-09T09:40:48.057Z,31.90
2023-05-09T09:41:47.999Z,36.50
2023-05-09T09:42:48.037Z,46.60
2023-05-09T09:43:48.065Z,103.50
2023-05-09T09:44:48.028Z,44.00
2023-05-09T09:45:48.018Z,73.30
2023-05-09T09:46:47.988Z,42.60
2023-05-09T09:47:48.058Z,42.10
2023-05-09T09:48:48.029Z,32.30
2023-05-09T09:49:47.969Z,33.10
2023-05-09T09:50:47.938Z,32.00
2023-05-09T09:51:47.902Z,32.90
2023-05-09T09:52:47.951Z,34.90
2023-05-09T09:53:47.875Z,33.90
2023-05-09T09:54:47.895Z,31.00
2023-05-09T09:55:47.883Z,27.20
2023-05-09T09:56:47.886Z,25.00
2023-05-09T09:57:47.887Z,26.70
2023-05-09T09:58:47.841Z,27.50
2023-05-09T09:59:47.848Z,24.80
2023-05-09T10:00:47.810Z,25.70
2023-05-09T10:01:47.900Z,27.60
2023-05-09T10:02:47.874Z,26.20
2023-05-09T10:03:47.795Z,26.10
2023-05-09T10:04:47.754Z,24.90
2023-05-09T10:05:47.749Z,24.80
2023-05-09T10:06:47.786Z,25.50
2023-05-09T10:07:47.753Z,29.70
2023-05-09T10:08:47.793Z,26.00
2023-05-09T10:09:47.716Z,27.20
2023-05-09T10:10:47.736Z,27.50
2023-05-09T10:11:47.737Z,27.60
2023-05-09T10:12:47.723Z,29.50
2023-05-09T10:13:47.660Z,32.70
2023-05-09T10:14:47.630Z,30.10
2023-05-09T10:15:53.613Z,27.50
2023-05-09T10:16:48.765Z,26.60
2023-05-09T10:17:47.801Z,27.10
2023-05-09T10:18:47.862Z,29.00
2023-05-09T10:19:47.601Z,31.30
2023-05-09T10:20:47.630Z,29.90
2023-05-09T10:21:47.604Z,30.50
2023-05-09T10:22:47.579Z,31.70
2023-05-09T10:23:47.554Z,30.40
2023-05-09T10:24:47.592Z,34.90
2023-05-09T10:25:47.548Z,36.40
2023-05-09T10:26:47.525Z,34.20
2023-05-09T10:27:47.534Z,37.80
2023-05-09T10:28:47.496Z,35.80
2023-05-09T10:29:47.518Z,32.90
2023-05-09T10:30:47.534Z,31.20
2023-05-09T10:31:47.602Z,31.50
2023-05-09T10:32:47.496Z,30.20
2023-05-09T10:33:47.513Z,31.70
2023-05-09T10:34:47.506Z,30.10
2023-05-09T10:35:47.447Z,34.40
2023-05-09T10:36:47.428Z,35.80
2023-05-09T10:37:47.428Z,35.00
2023-05-09T10:38:47.424Z,38.20
2023-05-09T10:39:47.405Z,47.90
2023-05-09T10:40:47.386Z,47.80
2023-05-09T10:41:47.364Z,44.50
2023-05-09T10:42:47.345Z,45.10
2023-05-09T10:43:47.393Z,41.90
2023-05-09T10:44:47.345Z,42.90
2023-05-09T10:45:47.293Z,47.90
2023-05-09T10:46:47.426Z,54.10
2023-05-09T10:47:47.316Z,52.30
2023-05-09T10:48:47.325Z,43.80
2023-05-09T10:49:47.331Z,45.30
2023-05-09T10:50:47.282Z,40.20
2023-05-09T10:51:47.243Z,35.80
2023-05-09T10:52:47.255Z,37.60
2023-05-09T10:53:47.319Z,35.90
2023-05-09T10:54:47.226Z,45.00
2023-05-09T10:55:47.215Z,46.10
2023-05-09T10:56:47.211Z,46.20
2023-05-09T10:57:47.215Z,37.20
2023-05-09T10:58:47.243Z,40.40
2023-05-09T10:59:47.200Z,47.20
2023-05-09T11:00:47.145Z,44.60
2023-05-09T11:01:47.183Z,44.40
2023-05-09T11:02:47.267Z,48.30
2023-05-09T11:03:47.313Z,40.80
2023-05-09T11:04:47.128Z,35.90
2023-05-09T11:05:47.109Z,41.30
2023-05-09T11:06:47.102Z,46.50
2023-05-09T11:07:47.160Z,41.30
2023-05-09T11:08:47.060Z,37.40
2023-05-09T11:09:47.056Z,40.30
2023-05-09T11:10:47.089Z,39.50
2023-05-09T11:11:47.039Z,41.90
2023-05-09T11:12:47.052Z,39.40
2023-05-09T11:13:47.057Z,41.60
2023-05-09T11:14:47.002Z,39.90
2023-05-09T11:15:46.999Z,36.60
2023-05-09T11:16:47.036Z,38.50
2023-05-09T11:17:47.122Z,40.00
2023-05-09T11:18:46.959Z,44.30
2023-05-09T11:19:46.970Z,36.80
2023-05-09T11:20:46.961Z,36.80
2023-05-09T11:21:46.921Z,41.00
2023-05-09T11:22:46.943Z,39.30
2023-05-09T11:23:47.005Z,35.00
2023-05-09T11:24:46.910Z,34.90
2023-05-09T11:25:46.870Z,35.90
2023-05-09T11:26:46.964Z,39.60
2023-05-09T11:27:46.872Z,37.30
2023-05-09T11:28:46.851Z,35.20
2023-05-09T11:29:46.909Z,32.70
2023-05-09T11:30:46.823Z,32.70
2023-05-09T11:31:46.880Z,32.70
2023-05-09T11:32:46.844Z,35.80
2023-05-09T11:33:46.763Z,32.10
2023-05-09T11:34:46.805Z,33.50
2023-05-09T11:35:46.777Z,35.10
2023-05-09T11:36:46.772Z,32.40
2023-05-09T11:37:46.768Z,35.90
2023-05-09T11:38:46.762Z,37.70
2023-05-09T11:39:46.763Z,35.00
2023-05-09T11:40:46.759Z,31.90
2023-05-09T11:41:46.743Z,33.00
2023-05-09T11:42:46.673Z,39.50
2023-05-09T11:43:46.687Z,35.80
2023-05-09T11:44:46.723Z,36.70
2023-05-09T11:45:46.747Z,34.60
2023-05-09T11:46:46.684Z,35.90
2023-05-09T11:47:46.685Z,34.90
2023-05-09T11:48:46.630Z,33.30
2023-05-09T11:49:46.630Z,32.20
2023-05-09T11:50:46.648Z,32.40
2023-05-09T11:51:46.608Z,31.20
2023-05-09T11:52:46.596Z,31.80
2023-05-09T11:53:46.589Z,34.70
2023-05-09T11:54:46.611Z,32.50
2023-05-09T11:55:46.642Z,55.00
2023-05-09T11:56:46.586Z,38.70
2023-05-09T11:57:46.560Z,41.50
2023-05-09T11:58:46.505Z,36.20
2023-05-09T11:59:46.646Z,35.30
2023-05-09T12:00:46.527Z,36.60
2023-05-09T12:01:46.499Z,33.30
2023-05-09T12:02:46.555Z,34.50
2023-05-09T12:03:46.595Z,30.80
2023-05-09T12:04:46.515Z,33.30
2023-05-09T12:05:46.464Z,32.90
2023-05-09T12:06:46.430Z,31.00
2023-05-09T12:07:46.494Z,30.20
2023-05-09T12:08:46.495Z,32.40
2023-05-09T12:09:46.440Z,33.80
2023-05-09T12:10:46.398Z,40.90
2023-05-09T12:11:47.815Z,45.20
2023-05-09T12:12:46.405Z,40.40
2023-05-09T12:13:46.414Z,38.40
2023-05-09T12:14:46.364Z,39.90
2023-05-09T12:15:47.185Z,43.10
2023-05-09T12:16:46.347Z,34.50
2023-05-09T12:17:47.373Z,36.50
2023-05-09T12:18:46.365Z,33.80
2023-05-09T12:19:46.306Z,33.50
2023-05-09T12:20:46.300Z,34.40
2023-05-09T12:21:46.284Z,31.50
2023-05-09T12:22:46.294Z,32.00
2023-05-09T12:23:47.487Z,32.00
2023-05-09T12:24:46.278Z,32.10
2023-05-09T12:25:46.223Z,33.10
2023-05-09T12:26:46.227Z,38.70
2023-05-09T12:27:46.246Z,36.20
2023-05-09T12:28:46.258Z,34.80
2023-05-09T12:29:46.237Z,32.70
2023-05-09T12:30:46.171Z,32.10
2023-05-09T12:31:46.216Z,31.60
2023-05-09T12:32:46.285Z,33.10
2023-05-09T12:33:46.223Z,37.00
2023-05-09T12:34:46.148Z,33.70
2023-05-09T12:35:46.152Z,33.00
2023-05-09T12:36:46.119Z,30.30
2023-05-09T12:37:46.148Z,31.20
2023-05-09T12:38:46.088Z,29.40
2023-05-09T12:39:46.065Z,30.50